Time;durP1;ratioP1;P1;durP2;ratioP2;P2;SDS_P1;SDS_P2;PMS_P1;PMS_P2;Temp;Humidity;BMP_temperature;BMP_pressure;BME280_temperature;BME280_humidity;BME280_pressure;Samples;Min_cycle;Max_cycle;Signal;HPM_P1;HPM_P2
2022/04/30 00:01:26;;;;;;;28.83;13.10;;;;;;;11.86;82.84;99128.75;5069314;28;20347;-66
2022/04/30 00:03:52;;;;;;;32.72;12.95;;;;;;;11.96;82.00;99125.03;5064598;28;20024;-66
2022/04/30 00:06:18;;;;;;;29.23;14.50;;;;;;;11.86;82.10;99128.75;5067770;28;20024;-66
2022/04/30 00:08:43;;;;;;;28.63;13.82;;;;;;;11.77;83.20;99128.88;5069659;28;20259;-66
2022/04/30 00:11:09;;;;;;;35.10;14.73;;;;;;;11.71;82.72;99123.72;5074893;28;20051;-66
2022/04/30 00:13:37;;;;;;;25.65;12.52;;;;;;;11.84;82.02;99127.91;5087141;28;20275;-66
2022/04/30 00:16:02;;;;;;;24.77;13.27;;;;;;;11.77;82.17;99128.88;5082707;28;20027;-66
2022/04/30 00:18:28;;;;;;;26.30;13.50;;;;;;;11.78;82.30;99124.50;5067444;28;20021;-66
2022/04/30 00:20:53;;;;;;;30.17;13.77;;;;;;;11.75;81.98;99120.16;5067368;28;20343;-66
2022/04/30 00:23:22;;;;;;;31.90;13.38;;;;;;;11.77;81.90;99126.25;5067655;28;20033;-66
2022/04/30 00:25:52;;;;;;;30.77;13.63;;;;;;;11.67;81.29;99116.75;5067853;28;20021;-66
2022/04/30 00:28:20;;;;;;;29.05;12.98;;;;;;;11.68;81.48;99118.47;5080572;28;20048;-66
2022/04/30 00:30:46;;;;;;;29.48;14.02;;;;;;;11.64;81.41;99111.53;5087535;28;20077;-66
2022/04/30 00:33:12;;;;;;;25.05;12.95;;;;;;;11.63;82.13;99120.34;5082525;28;20319;-66
2022/04/30 00:35:38;;;;;;;21.75;12.10;;;;;;;11.60;81.91;99117.72;5078296;28;20103;-66
2022/04/30 00:38:04;;;;;;;27.08;12.88;;;;;;;11.67;81.82;99113.25;5067112;28;20048;-66
2022/04/30 00:40:29;;;;;;;26.80;13.70;;;;;;;11.67;81.84;99106.19;5067231;28;20091;-66
2022/04/30 00:42:54;;;;;;;27.08;13.07;;;;;;;11.64;81.84;99105.41;5067021;28;20194;-66
2022/04/30 00:45:20;;;;;;;34.20;14.23;;;;;;;11.58;81.77;99105.47;5067051;28;20032;-66
2022/04/30 00:47:46;;;;;;;30.92;14.05;;;;;;;11.40;82.98;99100.47;5067437;28;20033;-66
2022/04/30 00:50:15;;;;;;;25.80;12.88;;;;;;;11.54;82.33;99099.34;5079986;28;20322;-66
2022/04/30 00:52:45;;;;;;;25.08;12.88;;;;;;;11.51;82.09;99099.41;5086623;28;20025;-66
2022/04/30 00:55:12;;;;;;;27.60;12.70;;;;;;;11.42;83.13;99093.41;5070929;28;20033;-66
2022/04/30 00:57:43;;;;;;;25.90;12.50;;;;;;;11.42;82.94;99099.53;5077669;28;20024;-66
2022/04/30 01:00:12;;;;;;;27.75;13.35;;;;;;;11.40;82.57;99085.53;5086607;28;20028;-66
2022/04/30 01:02:38;;;;;;;31.05;13.00;;;;;;;11.49;81.46;99085.41;5074151;28;20021;-66
2022/04/30 01:05:04;;;;;;;36.85;12.82;;;;;;;11.54;80.82;99099.34;5070318;28;20070;-65
2022/04/30 01:07:30;;;;;;;27.90;12.45;;;;;;;11.46;79.79;99089.84;5070505;28;20221;-65
2022/04/30 01:09:56;;;;;;;31.73;12.90;;;;;;;11.46;79.34;99084.56;5070557;28;20028;-65
2022/04/30 01:12:23;;;;;;;22.63;12.32;;;;;;;11.38;78.68;99087.31;5070548;28;20056;-65
2022/04/30 01:14:51;;;;;;;25.08;11.60;;;;;;;11.24;79.72;99078.75;5070324;28;20033;-65
2022/04/30 01:17:17;;;;;;;21.40;11.23;;;;;;;11.32;78.66;99071.59;5078891;28;20031;-65
2022/04/30 01:19:43;;;;;;;23.02;10.90;;;;;;;11.21;79.78;99068.25;5087296;28;20093;-65
2022/04/30 01:22:29;;;;;;;25.48;11.60;;;;;;;11.14;79.51;99071.00;5090222;28;20066;-66
2022/04/30 01:25:00;;;;;;;20.27;10.98;;;;;;;11.13;79.22;99064.00;5079192;28;20028;-66
2022/04/30 01:27:26;;;;;;;21.75;10.57;;;;;;;11.05;79.37;99061.47;5084852;28;20308;-66
2022/04/30 01:30:03;;;;;;;28.63;11.45;;;;;;;11.05;80.12;99060.59;5069804;28;20020;-66
2022/04/30 01:38:01;;;;;;;19.65;10.63;;;;;;;10.73;81.31;99045.25;5069494;28;20059;-66
2022/04/30 01:40:29;;;;;;;22.95;10.52;;;;;;;10.79;81.09;99047.81;5069064;28;20255;-66
2022/04/30 01:42:58;;;;;;;27.52;11.95;;;;;;;10.80;80.63;99047.75;5069829;28;20355;-66
2022/04/30 01:45:24;;;;;;;24.85;10.68;;;;;;;10.78;80.69;99046.03;5071249;28;20216;-66
2022/04/30 01:47:51;;;;;;;24.50;11.13;;;;;;;10.80;80.75;99049.53;5071750;28;20091;-66
2022/04/30 01:50:17;;;;;;;24.67;11.52;;;;;;;10.85;80.09;99045.94;5080171;28;20024;-66
2022/04/30 01:52:42;;;;;;;19.80;10.10;;;;;;;10.83;80.05;99049.50;5088840;28;20034;-66
2022/04/30 01:55:08;;;;;;;23.63;11.00;;;;;;;10.72;80.23;99035.59;5087950;28;20320;-65
2022/04/30 01:57:34;;;;;;;22.80;10.70;;;;;;;10.75;80.57;99035.56;5084675;28;20312;-65
2022/04/30 02:00:03;;;;;;;22.33;11.27;;;;;;;10.75;80.53;99035.56;5076317;28;20035;-65
2022/04/30 02:02:35;;;;;;;21.45;9.82;;;;;;;10.78;80.13;99033.75;5089231;28;20024;-65
2022/04/30 02:05:01;;;;;;;30.33;12.93;;;;;;;10.76;80.52;99026.78;5072885;28;20051;-65
2022/04/30 02:07:28;;;;;;;22.15;10.57;;;;;;;10.78;80.60;99022.34;5087500;28;20028;-66
2022/04/30 02:09:56;;;;;;;22.20;10.40;;;;;;;10.72;80.74;99025.06;5086051;28;20024;-66
2022/04/30 02:12:21;;;;;;;20.13;10.18;;;;;;;10.64;81.20;99021.69;5084755;28;20032;-66
2022/04/30 02:14:55;;;;;;;25.73;10.95;;;;;;;10.63;81.49;99025.19;5085315;28;20027;-66
2022/04/30 02:17:22;;;;;;;19.55;10.85;;;;;;;10.62;81.70;99015.56;5085388;28;20032;-66
2022/04/30 02:22:38;;;;;;;22.95;10.13;;;;;;;10.62;81.53;99010.28;5083036;28;20031;-66
2022/04/30 02:25:09;;;;;;;24.23;10.93;;;;;;;10.55;82.07;99011.25;5085402;28;20016;-66
2022/04/30 02:27:37;;;;;;;26.05;10.85;;;;;;;10.65;81.66;99018.16;5079976;28;20023;-66
2022/04/30 02:30:07;;;;;;;27.63;11.70;;;;;;;10.57;81.96;99014.75;5065086;28;20056;-66
2022/04/30 02:32:48;;;;;;;23.42;11.57;;;;;;;10.52;82.31;99011.31;5065197;28;20029;-66
2022/04/30 02:35:15;;;;;;;22.77;9.90;;;;;;;10.60;81.95;99020.84;5065171;28;20060;-66
2022/04/30 02:37:44;;;;;;;23.33;11.20;;;;;;;10.54;81.96;99006.91;5064909;28;20032;-66
2022/04/30 02:40:12;;;;;;;26.48;11.15;;;;;;;10.52;82.51;99016.56;5073401;28;20323;-66
2022/04/30 02:42:38;;;;;;;31.17;11.80;;;;;;;10.56;81.79;99013.00;5084525;28;20239;-66
2022/04/30 02:45:05;;;;;;;25.63;11.27;;;;;;;10.52;82.03;99011.31;5084729;28;20027;-66
2022/04/30 02:47:31;;;;;;;25.52;10.18;;;;;;;10.51;82.81;99012.22;5084950;28;20032;-66
2022/04/30 02:49:56;;;;;;;19.15;9.70;;;;;;;10.55;82.15;99013.91;5083729;28;20220;-66
2022/04/30 02:52:22;;;;;;;25.17;11.00;;;;;;;10.43;82.84;99011.41;5084639;28;20366;-66
2022/04/30 02:54:47;;;;;;;22.50;11.05;;;;;;;10.49;82.73;99022.75;5084526;28;20339;-66
2022/04/30 02:57:13;;;;;;;27.67;10.27;;;;;;;10.46;83.50;99012.25;5067591;28;20029;-66
2022/04/30 02:59:53;;;;;;;19.63;9.77;;;;;;;10.46;83.04;99019.28;5076025;28;20070;-66
2022/04/30 03:02:20;;;;;;;23.77;9.93;;;;;;;10.53;82.50;99015.66;5064441;28;20036;-66
2022/04/30 03:04:53;;;;;;;20.02;9.30;;;;;;;10.52;82.89;99011.31;5065854;28;20032;-66
2022/04/30 03:07:21;;;;;;;22.02;9.35;;;;;;;10.54;82.56;99006.91;5064342;28;20096;-66
2022/04/30 03:09:47;;;;;;;20.67;10.05;;;;;;;10.60;81.84;99009.47;5064506;28;20238;-66
2022/04/30 03:12:13;;;;;;;17.02;9.57;;;;;;;10.48;82.40;98999.09;5068535;28;20024;-66
2022/04/30 03:14:39;;;;;;;17.80;8.82;;;;;;;10.53;82.62;99003.41;5083532;28;20061;-66
2022/04/30 03:22:33;;;;;;;17.33;8.90;;;;;;;10.48;82.03;98993.81;5080516;28;20074;-66
2022/04/30 03:24:58;;;;;;;17.92;10.05;;;;;;;10.44;82.74;98997.41;5084165;28;20024;-66
2022/04/30 03:27:24;;;;;;;20.45;9.85;;;;;;;10.51;82.33;98996.41;5083663;28;20024;-66
2022/04/30 03:29:49;;;;;;;24.40;9.35;;;;;;;10.52;82.23;99000.78;5083659;28;20092;-66
2022/04/30 03:32:15;;;;;;;19.85;9.25;;;;;;;10.40;82.34;98996.56;5083586;28;20029;-66
2022/04/30 03:34:40;;;;;;;18.35;9.45;;;;;;;10.33;82.90;99004.53;5075169;28;20220;-66
2022/04/30 03:37:06;;;;;;;21.13;8.98;;;;;;;10.33;83.05;98994.00;5063827;28;20232;-66
2022/04/30 03:39:31;;;;;;;22.15;9.98;;;;;;;10.30;83.43;99000.19;5068151;28;20266;-66
2022/04/30 03:41:57;;;;;;;18.42;8.57;;;;;;;10.33;82.98;99001.91;5075484;28;20047;-66
2022/04/30 03:44:23;;;;;;;22.17;10.38;;;;;;;10.32;83.19;98994.91;5067992;28;20048;-66
2022/04/30 03:46:49;;;;;;;17.35;9.30;;;;;;;10.33;83.12;98996.66;5063988;28;20051;-66
2022/04/30 03:49:14;;;;;;;16.98;9.35;;;;;;;10.31;83.57;99001.03;5064396;28;20087;-66
2022/04/30 03:51:40;;;;;;;21.83;10.48;;;;;;;10.28;82.90;99001.06;5063780;28;20029;-66
2022/04/30 03:54:05;;;;;;;17.92;9.60;;;;;;;10.38;82.82;98994.84;5074609;28;20028;-66
2022/04/30 03:56:31;;;;;;;24.80;9.80;;;;;;;10.41;82.42;98997.44;5083820;28;20024;-66
2022/04/30 03:58:57;;;;;;;19.60;8.95;;;;;;;10.49;82.02;99000.81;5097701;28;20028;-66
2022/04/30 04:01:24;;;;;;;17.85;8.68;;;;;;;10.46;81.98;99003.50;5065748;28;20043;-66
2022/04/30 04:03:50;;;;;;;20.63;9.23;;;;;;;10.36;82.55;99004.50;5063889;28;20028;-66
2022/04/30 04:06:17;;;;;;;15.25;8.15;;;;;;;10.40;83.36;98998.31;5065185;28;20091;-66
2022/04/30 04:08:43;;;;;;;20.17;8.65;;;;;;;10.40;82.30;99006.19;5064843;28;20263;-66
2022/04/30 04:11:13;;;;;;;15.68;8.10;;;;;;;10.44;81.88;99005.28;5064381;28;20365;-65
2022/04/30 04:19:07;;;;;;;19.67;8.25;;;;;;;10.53;81.52;99007.78;5083492;28;20027;-64
2022/04/30 04:21:32;;;;;;;18.40;8.05;;;;;;;10.46;81.76;99011.38;5083793;28;20273;-64
2022/04/30 04:26:42;;;;;;;18.27;9.00;;;;;;;10.45;81.27;99005.25;5064405;28;20074;-64
2022/04/30 04:29:07;;;;;;;16.10;7.85;;;;;;;10.59;80.23;99012.97;5064368;28;20324;-65
2022/04/30 04:31:33;;;;;;;14.93;8.35;;;;;;;10.60;79.92;99012.94;5064492;28;20048;-65
2022/04/30 04:33:59;;;;;;;15.82;7.70;;;;;;;10.59;80.08;99018.22;5065008;28;20081;-64
2022/04/30 04:36:24;;;;;;;16.48;8.82;;;;;;;10.61;79.93;99021.72;5073645;28;20040;-64
2022/04/30 04:38:50;;;;;;;20.75;8.45;;;;;;;10.58;80.09;99021.75;5083968;28;20031;-64
2022/04/30 04:41:16;;;;;;;16.42;8.35;;;;;;;10.52;80.51;99027.09;5084655;28;20024;-65
2022/04/30 04:43:41;;;;;;;18.73;8.38;;;;;;;10.65;80.01;99024.28;5071814;28;20025;-64
2022/04/30 04:46:07;;;;;;;21.55;8.35;;;;;;;10.65;79.64;99028.69;5064863;28;20029;-64
2022/04/30 04:48:33;;;;;;;14.35;8.27;;;;;;;10.63;80.05;99027.81;5064940;28;20126;-64
2022/04/30 04:51:00;;;;;;;16.60;7.80;;;;;;;10.64;79.78;99029.56;5065763;28;20024;-64
2022/04/30 04:53:25;;;;;;;16.42;8.10;;;;;;;10.52;80.80;99032.38;5068343;28;20080;-64
2022/04/30 04:55:51;;;;;;;20.65;8.25;;;;;;;10.53;80.92;99023.56;5067894;28;20332;-64
2022/04/30 04:58:16;;;;;;;16.02;8.02;;;;;;;10.54;81.05;99030.59;5067871;28;20332;-64
2022/04/30 05:00:42;;;;;;;16.35;8.45;;;;;;;10.57;81.06;99033.19;5085963;28;20069;-65
2022/04/30 05:03:08;;;;;;;12.05;7.65;;;;;;;10.59;81.08;99039.28;5087476;28;20052;-65
2022/04/30 05:05:35;;;;;;;19.23;7.93;;;;;;;10.45;82.25;99039.44;5087564;28;20320;-64
2022/04/30 05:08:00;;;;;;;17.05;7.75;;;;;;;10.47;83.63;99039.44;5080277;28;20017;-64
2022/04/30 05:10:26;;;;;;;17.55;8.90;;;;;;;10.47;81.89;99039.44;5067124;28;20032;-64
2022/04/30 05:12:51;;;;;;;14.95;7.47;;;;;;;10.54;82.08;99041.97;5066727;28;20025;-64
2022/04/30 05:15:16;;;;;;;16.88;7.60;;;;;;;10.62;82.51;99041.88;5082633;28;20031;-64
2022/04/30 05:17:42;;;;;;;18.90;8.00;;;;;;;10.70;81.93;99047.94;5073617;28;20020;-65
2022/04/30 05:20:07;;;;;;;17.00;8.30;;;;;;;10.70;81.57;99050.56;5078623;28;20098;-65
2022/04/30 05:22:33;;;;;;;20.38;8.60;;;;;;;10.78;81.14;99043.41;5074998;28;20043;-64
2022/04/30 05:24:59;;;;;;;17.38;8.85;;;;;;;10.75;81.87;99046.09;5078433;28;20027;-64
2022/04/30 05:27:24;;;;;;;18.88;8.55;;;;;;;10.75;82.07;99052.22;5068516;28;20066;-64
2022/04/30 05:29:50;;;;;;;16.17;7.90;;;;;;;10.78;81.99;99051.31;5075582;28;20016;-63
2022/04/30 05:32:15;;;;;;;18.38;8.65;;;;;;;10.81;83.01;99056.53;5074573;28;20020;-64
2022/04/30 05:34:41;;;;;;;13.85;7.60;;;;;;;10.85;82.77;99063.50;5075010;28;20020;-65
2022/04/30 05:37:07;;;;;;;13.70;7.57;;;;;;;10.85;82.11;99059.09;5070449;28;20375;-64
2022/04/30 05:39:32;;;;;;;17.98;8.57;;;;;;;10.92;81.18;99060.75;5075128;28;20051;-64
2022/04/30 05:41:57;;;;;;;15.32;7.88;;;;;;;10.89;81.89;99062.59;5066165;28;20096;-64
2022/04/30 05:44:23;;;;;;;24.52;8.95;;;;;;;10.93;82.44;99069.53;5073666;28;20029;-65
2022/04/30 05:46:48;;;;;;;17.23;8.10;;;;;;;10.94;82.46;99069.53;5074451;28;20039;-65
2022/04/30 05:49:14;;;;;;;20.63;9.02;;;;;;;10.93;82.44;99077.44;5071647;28;20082;-65
2022/04/30 05:51:40;;;;;;;20.98;7.45;;;;;;;10.97;83.26;99067.75;5070770;28;20032;-65
2022/04/30 05:54:05;;;;;;;16.88;8.68;;;;;;;11.00;82.97;99068.56;5074601;28;20029;-65
2022/04/30 05:56:31;;;;;;;15.85;9.27;;;;;;;10.94;82.93;99069.53;5078639;28;20022;-65
2022/04/30 05:58:56;;;;;;;22.58;8.98;;;;;;;11.05;82.71;99077.28;5070895;28;20024;-65
2022/04/30 06:01:22;;;;;;;18.67;9.70;;;;;;;10.98;83.86;99078.22;5074519;28;20036;-65
2022/04/30 06:03:47;;;;;;;17.48;9.43;;;;;;;10.98;83.26;99080.88;5076795;28;20036;-65
2022/04/30 06:06:13;;;;;;;16.27;8.77;;;;;;;11.00;83.43;99089.63;5076585;28;20025;-64
2022/04/30 06:08:38;;;;;;;18.88;9.00;;;;;;;10.98;83.60;99081.75;5073929;28;20362;-64
2022/04/30 06:11:03;;;;;;;17.13;8.95;;;;;;;11.01;83.20;99083.47;5067021;28;20025;-64
2022/04/30 06:13:29;;;;;;;19.17;9.88;;;;;;;10.91;83.62;99084.47;5065561;28;20032;-64
2022/04/30 06:15:55;;;;;;;16.65;9.77;;;;;;;10.89;84.04;99086.28;5075271;28;20025;-65
2022/04/30 06:18:21;;;;;;;20.23;9.52;;;;;;;10.83;83.69;99081.94;5080669;28;20029;-65
2022/04/30 06:20:47;;;;;;;22.63;10.70;;;;;;;10.83;83.74;99089.00;5076482;28;20031;-65
2022/04/30 06:23:15;;;;;;;20.20;10.10;;;;;;;10.78;84.69;99096.06;5069599;28;20028;-65
2022/04/30 06:25:42;;;;;;;18.48;9.70;;;;;;;10.79;85.08;99100.47;5069830;28;20320;-65
2022/04/30 06:28:09;;;;;;;24.17;10.25;;;;;;;10.90;84.05;99098.56;5069906;28;20040;-65
2022/04/30 06:30:35;;;;;;;18.40;10.30;;;;;;;10.97;83.78;99094.09;5075287;28;20224;-65
2022/04/30 06:33:01;;;;;;;25.90;10.55;;;;;;;10.94;84.63;99101.13;5067220;28;20025;-65
2022/04/30 06:35:27;;;;;;;16.95;8.30;;;;;;;11.01;85.04;99101.91;5067068;28;20044;-65
2022/04/30 06:37:52;;;;;;;23.38;10.73;;;;;;;10.93;84.65;99098.50;5072876;28;20021;-65
2022/04/30 06:40:18;;;;;;;23.67;10.18;;;;;;;10.94;84.38;99100.25;5069853;28;20320;-65
2022/04/30 06:42:46;;;;;;;17.50;9.38;;;;;;;10.95;84.78;99102.84;5072172;28;20032;-65
2022/04/30 06:45:12;;;;;;;21.48;9.27;;;;;;;10.94;84.84;99100.25;5069741;28;20024;-65
2022/04/30 06:47:39;;;;;;;18.30;9.30;;;;;;;11.06;84.46;99100.09;5074933;28;20024;-65
2022/04/30 06:50:06;;;;;;;24.13;10.68;;;;;;;11.06;85.03;99105.34;5073877;28;20024;-65
2022/04/30 06:52:31;;;;;;;15.35;8.30;;;;;;;11.13;84.88;99101.72;5073818;28;20025;-65
2022/04/30 06:57:45;;;;;;;17.08;9.35;;;;;;;11.01;85.97;99101.91;5071680;28;20134;-64
2022/04/30 07:02:55;;;;;;;25.25;9.68;;;;;;;11.15;84.62;99115.78;5067970;28;20219;-64
2022/04/30 07:05:22;;;;;;;19.67;9.13;;;;;;;11.21;84.41;99110.41;5070824;28;20028;-64
2022/04/30 07:07:47;;;;;;;18.45;8.35;;;;;;;11.19;84.61;99112.19;5070836;28;20025;-64
2022/04/30 07:10:13;;;;;;;17.25;9.68;;;;;;;11.27;84.67;99114.72;5071809;28;20043;-64
2022/04/30 07:12:38;;;;;;;17.42;9.15;;;;;;;11.32;83.62;99116.38;5071014;28;20066;-64
2022/04/30 07:15:04;;;;;;;18.13;9.52;;;;;;;11.60;81.92;99115.06;5076927;28;20027;-64
2022/04/30 07:17:29;;;;;;;21.23;10.07;;;;;;;11.76;80.83;99121.88;5072199;28;20023;-64
2022/04/30 07:19:55;;;;;;;22.00;10.50;;;;;;;11.94;79.38;99121.59;5072992;28;20066;-64
2022/04/30 07:22:20;;;;;;;21.48;9.35;;;;;;;12.22;79.82;99125.47;5080721;28;20020;-65
2022/04/30 07:24:45;;;;;;;20.17;10.60;;;;;;;12.37;79.42;99135.75;5065310;28;20031;-65
2022/04/30 07:27:11;;;;;;;16.00;9.38;;;;;;;12.09;78.18;99125.72;5077580;28;20061;-65
2022/04/30 07:29:38;;;;;;;25.38;10.60;;;;;;;12.25;78.72;99138.59;5075693;28;20024;-65
2022/04/30 07:32:07;;;;;;;24.98;10.40;;;;;;;12.12;78.10;99130.94;5074776;28;20029;-64
2022/04/30 07:34:33;;;;;;;19.23;10.80;;;;;;;12.21;77.11;99136.91;5074364;28;20024;-65
2022/04/30 07:36:59;;;;;;;16.08;8.98;;;;;;;12.00;79.05;99142.59;5077116;28;20032;-65
2022/04/30 07:39:24;;;;;;;32.85;12.07;;;;;;;11.93;79.78;99140.94;5076833;28;20317;-65
2022/04/30 07:41:53;;;;;;;22.50;10.70;;;;;;;11.97;78.98;99139.13;5068144;28;20320;-65
2022/04/30 07:44:18;;;;;;;24.30;11.18;;;;;;;11.85;79.02;99139.31;5068898;28;20122;-65
2022/04/30 07:46:44;;;;;;;27.73;12.30;;;;;;;11.99;79.33;99146.09;5076328;28;20099;-65
2022/04/30 07:49:09;;;;;;;21.50;11.50;;;;;;;12.09;78.48;99146.84;5065697;28;20021;-65
2022/04/30 07:51:42;;;;;;;21.98;11.82;;;;;;;12.22;78.21;99143.94;5064161;28;20020;-64
2022/04/30 07:54:08;;;;;;;36.20;12.25;;;;;;;12.29;78.52;99140.31;5079710;28;20031;-65
2022/04/30 07:56:33;;;;;;;26.55;11.52;;;;;;;12.43;78.08;99148.84;5071504;28;20081;-64
2022/04/30 07:58:59;;;;;;;19.60;11.35;;;;;;;12.34;77.64;99148.16;5071549;28;20032;-65
2022/04/30 08:01:24;;;;;;;19.67;11.77;;;;;;;12.40;77.99;99143.59;5071443;28;20027;-65
2022/04/30 08:03:49;;;;;;;19.55;10.82;;;;;;;12.36;78.30;99147.22;5074152;28;20053;-64
2022/04/30 08:06:15;;;;;;;21.15;11.45;;;;;;;12.27;79.63;99146.50;5074888;28;20032;-64
2022/04/30 08:08:40;;;;;;;23.52;12.43;;;;;;;12.41;79.08;99153.25;5064689;28;20059;-65
2022/04/30 08:11:06;;;;;;;24.95;12.05;;;;;;;12.35;79.96;99145.47;5066087;28;20048;-65
2022/04/30 08:13:31;;;;;;;24.13;11.98;;;;;;;12.43;78.32;99151.47;5071767;28;20096;-65
2022/04/30 08:15:56;;;;;;;27.52;12.60;;;;;;;12.45;78.01;99152.31;5066822;28;20029;-65
2022/04/30 08:18:24;;;;;;;27.45;12.38;;;;;;;12.48;77.68;99149.63;5075951;28;20043;-64
2022/04/30 08:20:50;;;;;;;24.15;12.65;;;;;;;12.64;78.23;99151.06;5068893;28;20334;-64
2022/04/30 08:23:16;;;;;;;24.08;12.38;;;;;;;12.68;78.08;99147.47;5072914;28;20037;-65
2022/04/30 08:25:41;;;;;;;22.75;11.60;;;;;;;12.61;77.93;99159.06;5069504;28;20024;-65
2022/04/30 08:28:07;;;;;;;24.13;13.18;;;;;;;12.59;77.64;99154.69;5078392;28;20025;-65
2022/04/30 08:30:32;;;;;;;28.70;13.77;;;;;;;12.45;78.97;99147.03;5074828;28;20020;-65
2022/04/30 08:32:58;;;;;;;27.20;14.55;;;;;;;12.64;78.14;99150.19;5073949;28;20312;-65
2022/04/30 08:35:24;;;;;;;31.98;12.98;;;;;;;12.48;78.39;99151.38;5077329;28;20033;-65
2022/04/30 08:37:50;;;;;;;29.17;13.73;;;;;;;12.60;78.65;99161.72;5079411;28;20143;-65
2022/04/30 08:40:16;;;;;;;30.98;15.15;;;;;;;12.57;78.42;99157.34;5074477;28;20020;-64
2022/04/30 08:42:42;;;;;;;22.77;13.48;;;;;;;12.63;78.08;99159.88;5070474;28;20024;-64
2022/04/30 08:45:09;;;;;;;25.30;13.90;;;;;;;12.49;79.38;99159.28;5069617;28;20361;-65
2022/04/30 08:47:40;;;;;;;29.23;14.55;;;;;;;12.46;79.54;99159.34;5075406;28;20204;-65
2022/04/30 08:50:14;;;;;;;30.48;14.90;;;;;;;12.20;79.39;99160.69;5077890;28;20174;-65
2022/04/30 08:52:40;;;;;;;31.35;14.82;;;;;;;12.25;80.80;99157.06;5073337;28;20032;-65
2022/04/30 08:55:07;;;;;;;32.83;15.85;;;;;;;12.42;81.12;99162.94;5071332;28;20021;-65
2022/04/30 08:57:33;;;;;;;29.30;15.10;;;;;;;12.51;79.25;99168.06;5071880;28;20324;-65
2022/04/30 08:59:59;;;;;;;31.02;14.52;;;;;;;12.43;80.11;99162.03;5075411;28;20059;-65
2022/04/30 09:02:25;;;;;;;28.58;14.00;;;;;;;12.53;78.84;99166.25;5069052;28;20042;-64
2022/04/30 09:04:51;;;;;;;27.42;14.40;;;;;;;12.50;78.61;99168.09;5067912;28;20099;-64
2022/04/30 09:07:21;;;;;;;29.77;15.63;;;;;;;12.43;78.94;99164.66;5081126;28;20020;-65
2022/04/30 09:10:20;;;;;;;30.20;16.25;;;;;;;12.38;78.92;99166.53;5067738;28;20062;-65
2022/04/30 09:12:46;;;;;;;26.35;14.00;;;;;;;12.41;78.31;99158.53;5075725;28;20036;-65
2022/04/30 09:15:15;;;;;;;28.17;14.57;;;;;;;12.13;79.58;99156.44;5085191;28;20032;-65
2022/04/30 09:17:41;;;;;;;28.45;15.10;;;;;;;12.34;80.45;99159.56;5067496;28;20048;-65
2022/04/30 09:20:07;;;;;;;32.72;15.77;;;;;;;12.34;79.05;99159.56;5070112;28;20332;-65
2022/04/30 09:22:33;;;;;;;24.00;13.73;;;;;;;12.38;79.57;99155.97;5079992;28;20364;-65
2022/04/30 09:25:03;;;;;;;29.38;14.77;;;;;;;12.51;78.23;99157.50;5076080;28;20070;-65
2022/04/30 09:27:28;;;;;;;31.80;15.43;;;;;;;12.53;78.05;99160.97;5072767;28;20036;-65
2022/04/30 09:29:54;;;;;;;34.53;15.13;;;;;;;12.58;77.92;99164.41;5079318;28;20047;-65
2022/04/30 09:32:25;;;;;;;44.35;18.42;;;;;;;12.45;79.91;99154.97;5073502;28;20025;-65
2022/04/30 09:37:42;;;;;;;28.40;14.60;;;;;;;12.47;79.34;99154.94;5074828;28;20216;-64
2022/04/30 09:40:28;;;;;;;23.40;12.23;;;;;;;12.45;79.36;99152.31;5075802;28;20095;-64
2022/04/30 09:42:53;;;;;;;21.02;12.35;;;;;;;12.58;77.92;99159.13;5074697;28;20082;-65
2022/04/30 09:45:27;;;;;;;29.33;13.75;;;;;;;12.66;77.83;99165.09;5071202;28;20303;-65
2022/04/30 09:47:54;;;;;;;24.02;12.93;;;;;;;12.78;77.33;99151.66;5076614;28;20087;-65
2022/04/30 09:55:54;;;;;;;25.10;14.60;;;;;;;12.63;78.61;99161.66;5067541;28;20257;-65
2022/04/30 09:58:25;;;;;;;26.98;14.57;;;;;;;12.47;79.35;99155.78;5071377;28;20016;-65
2022/04/30 10:00:55;;;;;;;27.00;13.75;;;;;;;12.52;79.37;99153.94;5081754;28;20324;-65
2022/04/30 10:04:24;;;;;;;31.75;15.18;;;;;;;12.53;79.37;99153.03;5087498;28;20388;-64
2022/04/30 10:06:51;;;;;;;27.85;14.98;;;;;;;12.58;79.97;99159.13;5080641;28;20017;-64
2022/04/30 10:09:29;;;;;;;26.48;15.25;;;;;;;12.64;79.48;99153.72;5076284;28;20040;-65
2022/04/30 10:12:10;;;;;;;30.92;15.68;;;;;;;12.71;79.70;99150.06;5074456;28;20067;-65
2022/04/30 10:14:54;;;;;;;27.17;15.77;;;;;;;12.64;78.23;99145.78;5080347;28;20070;-65
2022/04/30 10:17:27;;;;;;;33.10;16.13;;;;;;;12.69;78.90;99149.19;5074735;28;20092;-65
2022/04/30 10:20:06;;;;;;;30.60;16.27;;;;;;;12.57;78.88;99152.06;5079343;28;20020;-65
2022/04/30 10:22:32;;;;;;;33.10;15.38;;;;;;;12.61;79.21;99148.50;5078832;28;20017;-65
2022/04/30 10:25:00;;;;;;;30.92;15.32;;;;;;;12.64;78.97;99156.34;5079295;28;20029;-65
2022/04/30 10:27:40;;;;;;;25.98;14.43;;;;;;;12.82;78.02;99163.91;5079950;28;20041;-65
2022/04/30 10:30:16;;;;;;;31.10;15.57;;;;;;;12.95;77.15;99154.81;5078332;28;20032;-65
2022/04/30 10:32:41;;;;;;;28.00;15.50;;;;;;;12.77;77.95;99149.94;5081295;28;20088;-65
2022/04/30 10:35:07;;;;;;;25.73;14.38;;;;;;;12.88;78.10;99145.28;5080476;28;20058;-65
2022/04/30 10:37:37;;;;;;;25.67;14.32;;;;;;;12.82;79.13;99145.41;5080033;28;20040;-65
2022/04/30 10:40:08;;;;;;;27.63;15.65;;;;;;;13.01;76.93;99148.59;5080186;28;20028;-67
2022/04/30 10:42:45;;;;;;;25.60;14.77;;;;;;;13.09;77.37;99146.66;5080503;28;20017;-64
2022/04/30 10:45:15;;;;;;;25.70;14.50;;;;;;;13.18;75.59;99145.59;5080637;28;20032;-64
2022/04/30 10:47:55;;;;;;;25.98;13.88;;;;;;;13.12;75.33;99159.81;5080044;28;20321;-64
2022/04/30 10:50:22;;;;;;;29.15;15.77;;;;;;;12.90;76.69;99145.25;5082877;28;20024;-64
2022/04/30 10:52:49;;;;;;;27.33;14.52;;;;;;;12.78;76.03;99151.66;5080038;28;20023;-64
2022/04/30 10:55:16;;;;;;;27.70;14.35;;;;;;;12.76;76.74;99148.16;5080201;28;20028;-64
2022/04/30 10:57:42;;;;;;;25.92;14.07;;;;;;;12.72;77.46;99151.78;5078066;28;20023;-64
2022/04/30 11:00:08;;;;;;;31.90;15.40;;;;;;;12.74;77.13;99150.00;5078402;28;20056;-64
2022/04/30 11:02:33;;;;;;;26.17;13.95;;;;;;;12.75;76.85;99146.44;5078011;28;20028;-64
2022/04/30 11:05:00;;;;;;;24.05;13.07;;;;;;;12.89;76.00;99140.88;5064300;28;20062;-64
2022/04/30 11:07:27;;;;;;;22.17;13.15;;;;;;;12.95;75.67;99149.53;5079390;28;20028;-64
2022/04/30 11:09:53;;;;;;;20.15;11.27;;;;;;;12.95;74.69;99153.97;5062182;28;20048;-64
2022/04/30 11:12:18;;;;;;;25.05;13.02;;;;;;;13.04;75.70;99149.38;5073258;28;20017;-64
2022/04/30 11:14:47;;;;;;;25.13;13.48;;;;;;;12.99;75.43;99146.00;5062757;28;20071;-64
2022/04/30 11:17:13;;;;;;;22.55;12.73;;;;;;;12.85;75.65;99142.72;5050906;28;20033;-64
2022/04/30 11:19:42;;;;;;;21.33;12.85;;;;;;;12.75;76.45;99135.88;5054014;28;20016;-64
2022/04/30 11:22:09;;;;;;;25.30;13.38;;;;;;;12.86;76.53;99144.47;5054745;28;20120;-64
2022/04/30 11:24:37;;;;;;;25.50;13.23;;;;;;;12.96;76.17;99140.72;5056482;28;20029;-64
2022/04/30 11:27:10;;;;;;;25.23;13.10;;;;;;;13.12;74.99;99138.66;5059598;28;20217;-64
2022/04/30 11:29:38;;;;;;;23.15;12.43;;;;;;;13.29;72.20;99128.56;5051580;28;20070;-64
2022/04/30 11:32:05;;;;;;;18.45;11.70;;;;;;;13.46;72.97;99125.56;5058976;28;20029;-64
2022/04/30 11:34:30;;;;;;;22.30;11.60;;;;;;;13.37;72.32;99125.75;5057813;28;20025;-64
2022/04/30 11:36:58;;;;;;;24.13;12.02;;;;;;;13.51;73.33;99118.41;5057646;28;20091;-64
2022/04/30 11:39:24;;;;;;;21.83;11.77;;;;;;;13.53;72.29;99127.16;5060003;28;20029;-64
2022/04/30 11:41:52;;;;;;;19.52;11.40;;;;;;;13.47;72.87;99127.28;5059688;28;20209;-64
2022/04/30 11:44:19;;;;;;;20.40;11.77;;;;;;;13.32;72.51;99125.03;5060519;28;20029;-64
2022/04/30 11:46:46;;;;;;;18.38;10.20;;;;;;;13.25;73.98;99120.78;5058205;28;20026;-64
2022/04/30 11:49:14;;;;;;;18.42;11.05;;;;;;;13.42;72.62;99121.25;5054398;28;20213;-64
2022/04/30 11:51:42;;;;;;;21.67;11.27;;;;;;;13.53;72.58;99121.88;5056303;28;20112;-64
2022/04/30 11:54:09;;;;;;;22.38;10.48;;;;;;;13.43;71.36;99125.63;5055421;28;20051;-64
2022/04/30 11:56:36;;;;;;;18.92;10.25;;;;;;;13.52;70.84;99121.00;5060551;28;20025;-64